sensor_id;sensor_type;location;lat;lon;timestamp;P1;durP1;ratioP1;P2;durP2;ratioP2
36191;SDS011;22233;42.708;23.360;2024-03-02T00:01:39;30.10;;;20.23;;
36191;SDS011;22233;42.708;23.360;2024-03-02T00:04:04;26.88;;;19.73;;
36191;SDS011;22233;42.708;23.360;2024-03-02T00:06:31;27.27;;;20.80;;
36191;SDS011;22233;42.708;23.360;2024-03-02T00:08:58;28.55;;;18.58;;
36191;SDS011;22233;42.708;23.360;2024-03-02T00:11:24;27.17;;;18.93;;
36191;SDS011;22233;42.708;23.360;2024-03-02T00:13:52;28.13;;;20.58;;
36191;SDS011;22233;42.708;23.360;2024-03-02T00:16:18;25.30;;;18.10;;
36191;SDS011;22233;42.708;23.360;2024-03-02T00:18:43;28.15;;;18.52;;
36191;SDS011;22233;42.708;23.360;2024-03-02T00:21:09;29.20;;;19.42;;
36191;SDS011;22233;42.708;23.360;2024-03-02T00:23:35;27.77;;;19.23;;
36191;SDS011;22233;42.708;23.360;2024-03-02T00:26:00;28.30;;;19.05;;
36191;SDS011;22233;42.708;23.360;2024-03-02T00:33:34;29.33;;;18.48;;
36191;SDS011;22233;42.708;23.360;2024-03-02T00:36:04;26.15;;;18.20;;
36191;SDS011;22233;42.708;23.360;2024-03-02T00:38:30;29.67;;;18.58;;
36191;SDS011;22233;42.708;23.360;2024-03-02T00:41:00;28.58;;;18.67;;
36191;SDS011;22233;42.708;23.360;2024-03-02T00:43:43;25.15;;;17.73;;
36191;SDS011;22233;42.708;23.360;2024-03-02T00:46:18;24.40;;;18.20;;
36191;SDS011;22233;42.708;23.360;2024-03-02T00:48:48;28.23;;;18.35;;
36191;SDS011;22233;42.708;23.360;2024-03-02T00:51:17;27.92;;;18.60;;
36191;SDS011;22233;42.708;23.360;2024-03-02T00:53:43;28.73;;;18.88;;
36191;SDS011;22233;42.708;23.360;2024-03-02T00:56:09;25.58;;;18.13;;
36191;SDS011;22233;42.708;23.360;2024-03-02T00:58:36;26.10;;;18.25;;
36191;SDS011;22233;42.708;23.360;2024-03-02T01:01:02;25.65;;;18.75;;
36191;SDS011;22233;42.708;23.360;2024-03-02T01:03:27;26.88;;;19.15;;
36191;SDS011;22233;42.708;23.360;2024-03-02T01:05:53;25.92;;;17.60;;
36191;SDS011;22233;42.708;23.360;2024-03-02T01:08:18;27.30;;;18.30;;
36191;SDS011;22233;42.708;23.360;2024-03-02T01:10:44;28.13;;;18.63;;
36191;SDS011;22233;42.708;23.360;2024-03-02T01:13:09;28.80;;;19.15;;
36191;SDS011;22233;42.708;23.360;2024-03-02T01:15:34;25.20;;;18.88;;
36191;SDS011;22233;42.708;23.360;2024-03-02T01:18:00;27.25;;;19.30;;
36191;SDS011;22233;42.708;23.360;2024-03-02T01:20:25;26.15;;;18.45;;
36191;SDS011;22233;42.708;23.360;2024-03-02T01:22:51;28.02;;;18.98;;
36191;SDS011;22233;42.708;23.360;2024-03-02T01:25:17;26.90;;;19.52;;
36191;SDS011;22233;42.708;23.360;2024-03-02T01:27:42;26.20;;;19.35;;
36191;SDS011;22233;42.708;23.360;2024-03-02T01:30:08;26.65;;;19.85;;
36191;SDS011;22233;42.708;23.360;2024-03-02T01:32:33;28.75;;;18.55;;
36191;SDS011;22233;42.708;23.360;2024-03-02T01:34:59;32.45;;;20.30;;
36191;SDS011;22233;42.708;23.360;2024-03-02T01:37:24;26.83;;;19.45;;
36191;SDS011;22233;42.708;23.360;2024-03-02T01:39:49;27.13;;;19.08;;
36191;SDS011;22233;42.708;23.360;2024-03-02T01:42:15;26.90;;;19.30;;
36191;SDS011;22233;42.708;23.360;2024-03-02T01:44:40;29.27;;;18.55;;
36191;SDS011;22233;42.708;23.360;2024-03-02T01:47:06;27.40;;;18.80;;
36191;SDS011;22233;42.708;23.360;2024-03-02T01:49:31;25.27;;;18.55;;
36191;SDS011;22233;42.708;23.360;2024-03-02T01:51:59;26.65;;;18.98;;
36191;SDS011;22233;42.708;23.360;2024-03-02T01:54:24;25.33;;;18.48;;
36191;SDS011;22233;42.708;23.360;2024-03-02T01:56:49;27.48;;;18.67;;
36191;SDS011;22233;42.708;23.360;2024-03-02T01:59:15;24.27;;;17.50;;
36191;SDS011;22233;42.708;23.360;2024-03-02T02:01:40;25.42;;;18.63;;
36191;SDS011;22233;42.708;23.360;2024-03-02T02:04:06;24.48;;;18.10;;
36191;SDS011;22233;42.708;23.360;2024-03-02T02:06:32;28.00;;;19.40;;
36191;SDS011;22233;42.708;23.360;2024-03-02T02:08:57;27.65;;;19.77;;
36191;SDS011;22233;42.708;23.360;2024-03-02T02:11:24;28.33;;;19.25;;
36191;SDS011;22233;42.708;23.360;2024-03-02T02:13:49;30.08;;;19.98;;
36191;SDS011;22233;42.708;23.360;2024-03-02T02:16:15;26.48;;;20.02;;
36191;SDS011;22233;42.708;23.360;2024-03-02T02:18:40;27.55;;;20.50;;
36191;SDS011;22233;42.708;23.360;2024-03-02T02:21:06;29.13;;;19.40;;
36191;SDS011;22233;42.708;23.360;2024-03-02T02:23:31;26.30;;;19.00;;
36191;SDS011;22233;42.708;23.360;2024-03-02T02:25:56;27.70;;;19.65;;
36191;SDS011;22233;42.708;23.360;2024-03-02T02:28:22;28.08;;;20.48;;
36191;SDS011;22233;42.708;23.360;2024-03-02T02:30:47;30.80;;;20.70;;
36191;SDS011;22233;42.708;23.360;2024-03-02T02:33:12;32.20;;;20.50;;
36191;SDS011;22233;42.708;23.360;2024-03-02T02:35:38;31.60;;;20.90;;
36191;SDS011;22233;42.708;23.360;2024-03-02T02:38:03;30.42;;;20.63;;
36191;SDS011;22233;42.708;23.360;2024-03-02T02:40:29;27.92;;;20.30;;
36191;SDS011;22233;42.708;23.360;2024-03-02T02:42:56;30.75;;;20.85;;
36191;SDS011;22233;42.708;23.360;2024-03-02T02:45:21;28.85;;;21.40;;
36191;SDS011;22233;42.708;23.360;2024-03-02T02:47:47;27.13;;;20.15;;
36191;SDS011;22233;42.708;23.360;2024-03-02T02:50:13;28.90;;;19.73;;
36191;SDS011;22233;42.708;23.360;2024-03-02T02:52:39;31.95;;;21.27;;
36191;SDS011;22233;42.708;23.360;2024-03-02T02:55:06;25.98;;;18.23;;
36191;SDS011;22233;42.708;23.360;2024-03-02T02:57:34;31.90;;;20.33;;
36191;SDS011;22233;42.708;23.360;2024-03-02T03:00:07;24.98;;;18.65;;
36191;SDS011;22233;42.708;23.360;2024-03-02T03:02:41;28.45;;;18.77;;
36191;SDS011;22233;42.708;23.360;2024-03-02T03:05:08;32.15;;;19.02;;
36191;SDS011;22233;42.708;23.360;2024-03-02T03:07:34;26.48;;;18.88;;
36191;SDS011;22233;42.708;23.360;2024-03-02T03:10:01;26.40;;;17.85;;
36191;SDS011;22233;42.708;23.360;2024-03-02T03:12:28;28.73;;;19.63;;
36191;SDS011;22233;42.708;23.360;2024-03-02T03:14:53;27.58;;;19.17;;
36191;SDS011;22233;42.708;23.360;2024-03-02T03:17:19;27.85;;;19.67;;
36191;SDS011;22233;42.708;23.360;2024-03-02T03:19:46;28.67;;;19.48;;
36191;SDS011;22233;42.708;23.360;2024-03-02T03:22:12;27.88;;;19.40;;
36191;SDS011;22233;42.708;23.360;2024-03-02T03:24:38;29.92;;;19.52;;
36191;SDS011;22233;42.708;23.360;2024-03-02T03:27:03;28.75;;;19.38;;
36191;SDS011;22233;42.708;23.360;2024-03-02T03:29:29;26.75;;;18.63;;
36191;SDS011;22233;42.708;23.360;2024-03-02T03:31:54;28.33;;;20.15;;
36191;SDS011;22233;42.708;23.360;2024-03-02T03:34:19;27.20;;;18.95;;
36191;SDS011;22233;42.708;23.360;2024-03-02T03:36:45;25.67;;;18.92;;
36191;SDS011;22233;42.708;23.360;2024-03-02T03:39:10;27.85;;;20.08;;
36191;SDS011;22233;42.708;23.360;2024-03-02T03:41:36;28.40;;;20.27;;
36191;SDS011;22233;42.708;23.360;2024-03-02T03:44:01;26.20;;;19.10;;
36191;SDS011;22233;42.708;23.360;2024-03-02T03:46:26;30.63;;;20.38;;
36191;SDS011;22233;42.708;23.360;2024-03-02T03:48:52;26.33;;;19.55;;
36191;SDS011;22233;42.708;23.360;2024-03-02T03:51:17;28.38;;;20.20;;
36191;SDS011;22233;42.708;23.360;2024-03-02T03:53:43;27.92;;;19.65;;
36191;SDS011;22233;42.708;23.360;2024-03-02T03:56:08;26.30;;;17.55;;
36191;SDS011;22233;42.708;23.360;2024-03-02T03:58:33;31.08;;;19.10;;
36191;SDS011;22233;42.708;23.360;2024-03-02T04:00:59;27.65;;;19.00;;
36191;SDS011;22233;42.708;23.360;2024-03-02T04:03:24;28.60;;;19.88;;
36191;SDS011;22233;42.708;23.360;2024-03-02T04:05:50;28.40;;;19.08;;
36191;SDS011;22233;42.708;23.360;2024-03-02T04:08:15;29.55;;;19.02;;
36191;SDS011;22233;42.708;23.360;2024-03-02T04:10:41;28.48;;;19.42;;
36191;SDS011;22233;42.708;23.360;2024-03-02T04:13:07;28.63;;;19.23;;
36191;SDS011;22233;42.708;23.360;2024-03-02T04:15:32;29.02;;;19.80;;
36191;SDS011;22233;42.708;23.360;2024-03-02T04:17:58;27.60;;;19.33;;
36191;SDS011;22233;42.708;23.360;2024-03-02T04:20:23;29.88;;;21.48;;
36191;SDS011;22233;42.708;23.360;2024-03-02T04:22:49;27.77;;;19.30;;
36191;SDS011;22233;42.708;23.360;2024-03-02T04:25:14;29.33;;;19.83;;
36191;SDS011;22233;42.708;23.360;2024-03-02T04:27:39;27.50;;;19.40;;
36191;SDS011;22233;42.708;23.360;2024-03-02T04:30:05;29.55;;;19.73;;
36191;SDS011;22233;42.708;23.360;2024-03-02T04:32:30;28.80;;;19.48;;
36191;SDS011;22233;42.708;23.360;2024-03-02T04:34:56;29.20;;;18.55;;
36191;SDS011;22233;42.708;23.360;2024-03-02T04:37:22;32.92;;;20.13;;
36191;SDS011;22233;42.708;23.360;2024-03-02T04:39:47;28.10;;;18.55;;
36191;SDS011;22233;42.708;23.360;2024-03-02T04:42:13;28.77;;;19.50;;
36191;SDS011;22233;42.708;23.360;2024-03-02T04:44:38;27.42;;;19.30;;
36191;SDS011;22233;42.708;23.360;2024-03-02T04:47:04;31.45;;;19.77;;
36191;SDS011;22233;42.708;23.360;2024-03-02T04:49:30;30.63;;;19.33;;
36191;SDS011;22233;42.708;23.360;2024-03-02T04:51:55;29.60;;;19.52;;
36191;SDS011;22233;42.708;23.360;2024-03-02T04:54:21;31.08;;;20.10;;
36191;SDS011;22233;42.708;23.360;2024-03-02T04:56:47;28.38;;;20.02;;
36191;SDS011;22233;42.708;23.360;2024-03-02T04:59:18;35.35;;;20.50;;
36191;SDS011;22233;42.708;23.360;2024-03-02T05:01:44;32.22;;;20.30;;
36191;SDS011;22233;42.708;23.360;2024-03-02T05:04:10;30.38;;;19.45;;
36191;SDS011;22233;42.708;23.360;2024-03-02T05:06:39;31.30;;;20.33;;
36191;SDS011;22233;42.708;23.360;2024-03-02T05:09:10;32.80;;;21.45;;
36191;SDS011;22233;42.708;23.360;2024-03-02T05:11:35;32.97;;;20.95;;
36191;SDS011;22233;42.708;23.360;2024-03-02T05:14:06;31.90;;;20.65;;
36191;SDS011;22233;42.708;23.360;2024-03-02T05:16:32;34.30;;;21.20;;
36191;SDS011;22233;42.708;23.360;2024-03-02T05:18:58;33.20;;;21.10;;
36191;SDS011;22233;42.708;23.360;2024-03-02T05:21:24;35.47;;;22.08;;
36191;SDS011;22233;42.708;23.360;2024-03-02T05:23:49;32.15;;;21.15;;
36191;SDS011;22233;42.708;23.360;2024-03-02T05:26:14;30.77;;;20.38;;
36191;SDS011;22233;42.708;23.360;2024-03-02T05:28:40;32.25;;;20.85;;
36191;SDS011;22233;42.708;23.360;2024-03-02T05:31:05;36.47;;;21.75;;
36191;SDS011;22233;42.708;23.360;2024-03-02T05:33:31;34.58;;;21.52;;
36191;SDS011;22233;42.708;23.360;2024-03-02T05:35:58;30.50;;;20.52;;
36191;SDS011;22233;42.708;23.360;2024-03-02T05:38:23;32.47;;;20.95;;
36191;SDS011;22233;42.708;23.360;2024-03-02T05:40:49;31.67;;;20.05;;
36191;SDS011;22233;42.708;23.360;2024-03-02T05:43:14;34.90;;;22.00;;
36191;SDS011;22233;42.708;23.360;2024-03-02T05:45:39;33.08;;;21.45;;
36191;SDS011;22233;42.708;23.360;2024-03-02T05:48:07;32.83;;;21.73;;
36191;SDS011;22233;42.708;23.360;2024-03-02T05:50:34;33.40;;;20.02;;
36191;SDS011;22233;42.708;23.360;2024-03-02T05:52:59;33.55;;;20.90;;
36191;SDS011;22233;42.708;23.360;2024-03-02T05:55:25;33.03;;;20.38;;
36191;SDS011;22233;42.708;23.360;2024-03-02T05:57:50;36.28;;;21.70;;
36191;SDS011;22233;42.708;23.360;2024-03-02T06:00:31;32.38;;;20.25;;
36191;SDS011;22233;42.708;23.360;2024-03-02T06:02:56;32.67;;;20.48;;
36191;SDS011;22233;42.708;23.360;2024-03-02T06:05:21;34.72;;;20.40;;
36191;SDS011;22233;42.708;23.360;2024-03-02T06:07:47;33.92;;;20.83;;
36191;SDS011;22233;42.708;23.360;2024-03-02T06:10:12;35.83;;;20.35;;
36191;SDS011;22233;42.708;23.360;2024-03-02T06:12:37;37.20;;;21.42;;
36191;SDS011;22233;42.708;23.360;2024-03-02T06:15:03;32.08;;;20.90;;
36191;SDS011;22233;42.708;23.360;2024-03-02T06:17:29;35.30;;;20.98;;
36191;SDS011;22233;42.708;23.360;2024-03-02T06:19:54;37.15;;;21.25;;
36191;SDS011;22233;42.708;23.360;2024-03-02T06:22:20;34.20;;;22.88;;
36191;SDS011;22233;42.708;23.360;2024-03-02T06:24:46;37.03;;;20.45;;
36191;SDS011;22233;42.708;23.360;2024-03-02T06:27:11;36.05;;;21.77;;
36191;SDS011;22233;42.708;23.360;2024-03-02T06:29:37;35.70;;;20.70;;
36191;SDS011;22233;42.708;23.360;2024-03-02T06:32:02;34.55;;;21.13;;
36191;SDS011;22233;42.708;23.360;2024-03-02T06:34:28;32.28;;;20.52;;
36191;SDS011;22233;42.708;23.360;2024-03-02T06:36:53;37.25;;;23.70;;
36191;SDS011;22233;42.708;23.360;2024-03-02T06:39:18;33.60;;;19.10;;
36191;SDS011;22233;42.708;23.360;2024-03-02T06:41:44;31.73;;;21.75;;
36191;SDS011;22233;42.708;23.360;2024-03-02T06:44:09;34.58;;;21.45;;
36191;SDS011;22233;42.708;23.360;2024-03-02T06:46:34;35.35;;;22.35;;
36191;SDS011;22233;42.708;23.360;2024-03-02T06:49:00;35.92;;;22.60;;
36191;SDS011;22233;42.708;23.360;2024-03-02T06:51:27;33.90;;;20.83;;
36191;SDS011;22233;42.708;23.360;2024-03-02T06:53:52;31.80;;;20.90;;
36191;SDS011;22233;42.708;23.360;2024-03-02T06:56:18;33.08;;;20.98;;
36191;SDS011;22233;42.708;23.360;2024-03-02T06:58:43;33.88;;;21.70;;
36191;SDS011;22233;42.708;23.360;2024-03-02T07:01:08;34.00;;;22.08;;
36191;SDS011;22233;42.708;23.360;2024-03-02T07:03:34;34.90;;;22.30;;
36191;SDS011;22233;42.708;23.360;2024-03-02T07:06:00;35.55;;;21.92;;
36191;SDS011;22233;42.708;23.360;2024-03-02T07:08:25;36.40;;;21.67;;
36191;SDS011;22233;42.708;23.360;2024-03-02T07:10:51;34.67;;;21.08;;
36191;SDS011;22233;42.708;23.360;2024-03-02T07:13:16;32.53;;;19.67;;
36191;SDS011;22233;42.708;23.360;2024-03-02T07:15:42;34.72;;;20.92;;
36191;SDS011;22233;42.708;23.360;2024-03-02T07:18:30;30.08;;;18.80;;
36191;SDS011;22233;42.708;23.360;2024-03-02T07:20:56;31.30;;;20.45;;
36191;SDS011;22233;42.708;23.360;2024-03-02T07:23:26;31.55;;;19.40;;
36191;SDS011;22233;42.708;23.360;2024-03-02T07:25:55;31.50;;;20.50;;
36191;SDS011;22233;42.708;23.360;2024-03-02T07:28:21;30.80;;;18.55;;
36191;SDS011;22233;42.708;23.360;2024-03-02T07:30:47;31.98;;;20.60;;
36191;SDS011;22233;42.708;23.360;2024-03-02T07:33:22;30.98;;;19.90;;
36191;SDS011;22233;42.708;23.360;2024-03-02T07:35:48;32.22;;;19.63;;
36191;SDS011;22233;42.708;23.360;2024-03-02T07:38:13;34.58;;;19.42;;
36191;SDS011;22233;42.708;23.360;2024-03-02T07:40:38;29.23;;;19.10;;
36191;SDS011;22233;42.708;23.360;2024-03-02T07:43:04;34.08;;;20.13;;
36191;SDS011;22233;42.708;23.360;2024-03-02T07:45:29;31.42;;;19.13;;
36191;SDS011;22233;42.708;23.360;2024-03-02T07:47:55;31.48;;;18.90;;
36191;SDS011;22233;42.708;23.360;2024-03-02T07:50:20;31.88;;;19.23;;
36191;SDS011;22233;42.708;23.360;2024-03-02T07:52:46;29.75;;;18.95;;
36191;SDS011;22233;42.708;23.360;2024-03-02T07:55:11;28.92;;;19.35;;
36191;SDS011;22233;42.708;23.360;2024-03-02T07:57:36;29.08;;;18.10;;
36191;SDS011;22233;42.708;23.360;2024-03-02T08:00:02;30.38;;;19.00;;
36191;SDS011;22233;42.708;23.360;2024-03-02T08:02:27;27.90;;;18.00;;
36191;SDS011;22233;42.708;23.360;2024-03-02T08:04:53;30.30;;;18.23;;
36191;SDS011;22233;42.708;23.360;2024-03-02T08:07:18;27.75;;;18.92;;
36191;SDS011;22233;42.708;23.360;2024-03-02T08:09:44;31.48;;;19.33;;
36191;SDS011;22233;42.708;23.360;2024-03-02T08:12:09;28.48;;;18.70;;
36191;SDS011;22233;42.708;23.360;2024-03-02T08:14:34;31.33;;;19.00;;
36191;SDS011;22233;42.708;23.360;2024-03-02T08:17:00;29.95;;;20.08;;
36191;SDS011;22233;42.708;23.360;2024-03-02T08:19:26;32.33;;;20.50;;
36191;SDS011;22233;42.708;23.360;2024-03-02T08:21:52;29.23;;;20.13;;
36191;SDS011;22233;42.708;23.360;2024-03-02T08:24:17;31.65;;;19.23;;
36191;SDS011;22233;42.708;23.360;2024-03-02T08:26:42;33.55;;;19.63;;
36191;SDS011;22233;42.708;23.360;2024-03-02T08:29:08;33.58;;;20.65;;
36191;SDS011;22233;42.708;23.360;2024-03-02T08:31:33;31.63;;;19.70;;
36191;SDS011;22233;42.708;23.360;2024-03-02T08:34:00;31.50;;;18.35;;
36191;SDS011;22233;42.708;23.360;2024-03-02T08:36:25;32.92;;;20.33;;
36191;SDS011;22233;42.708;23.360;2024-03-02T08:38:51;30.77;;;19.42;;
36191;SDS011;22233;42.708;23.360;2024-03-02T08:41:16;32.13;;;19.73;;
36191;SDS011;22233;42.708;23.360;2024-03-02T08:43:42;31.65;;;20.35;;
36191;SDS011;22233;42.708;23.360;2024-03-02T08:46:07;30.05;;;20.13;;
36191;SDS011;22233;42.708;23.360;2024-03-02T08:48:33;33.42;;;19.50;;
36191;SDS011;22233;42.708;23.360;2024-03-02T08:50:59;28.90;;;19.42;;
36191;SDS011;22233;42.708;23.360;2024-03-02T08:53:24;26.67;;;18.70;;
36191;SDS011;22233;42.708;23.360;2024-03-02T08:55:49;30.38;;;18.33;;
36191;SDS011;22233;42.708;23.360;2024-03-02T08:58:15;30.95;;;19.38;;
36191;SDS011;22233;42.708;23.360;2024-03-02T09:00:40;32.25;;;21.75;;
36191;SDS011;22233;42.708;23.360;2024-03-02T09:03:07;34.58;;;22.90;;
36191;SDS011;22233;42.708;23.360;2024-03-02T09:05:32;30.30;;;19.80;;
36191;SDS011;22233;42.708;23.360;2024-03-02T09:07:58;28.48;;;18.83;;
36191;SDS011;22233;42.708;23.360;2024-03-02T09:10:23;30.92;;;18.48;;
36191;SDS011;22233;42.708;23.360;2024-03-02T09:12:48;31.30;;;20.80;;
36191;SDS011;22233;42.708;23.360;2024-03-02T09:15:14;32.88;;;19.92;;
36191;SDS011;22233;42.708;23.360;2024-03-02T09:17:40;28.38;;;19.60;;
36191;SDS011;22233;42.708;23.360;2024-03-02T09:20:05;30.25;;;19.50;;
36191;SDS011;22233;42.708;23.360;2024-03-02T09:22:31;27.92;;;18.45;;
36191;SDS011;22233;42.708;23.360;2024-03-02T09:24:57;30.27;;;19.95;;
36191;SDS011;22233;42.708;23.360;2024-03-02T09:27:23;29.70;;;19.30;;
36191;SDS011;22233;42.708;23.360;2024-03-02T09:29:48;27.40;;;18.60;;
36191;SDS011;22233;42.708;23.360;2024-03-02T09:32:14;27.90;;;17.85;;
36191;SDS011;22233;42.708;23.360;2024-03-02T09:34:40;28.33;;;18.98;;
36191;SDS011;22233;42.708;23.360;2024-03-02T09:37:05;31.92;;;19.20;;
36191;SDS011;22233;42.708;23.360;2024-03-02T09:39:31;32.90;;;21.33;;
36191;SDS011;22233;42.708;23.360;2024-03-02T09:41:57;28.48;;;19.60;;
36191;SDS011;22233;42.708;23.360;2024-03-02T09:44:23;27.95;;;17.77;;
36191;SDS011;22233;42.708;23.360;2024-03-02T09:46:50;31.65;;;20.20;;
36191;SDS011;22233;42.708;23.360;2024-03-02T09:49:15;31.23;;;20.10;;
36191;SDS011;22233;42.708;23.360;2024-03-02T09:51:41;29.92;;;18.35;;
36191;SDS011;22233;42.708;23.360;2024-03-02T09:54:12;30.20;;;18.25;;
36191;SDS011;22233;42.708;23.360;2024-03-02T09:56:38;34.03;;;20.10;;
36191;SDS011;22233;42.708;23.360;2024-03-02T09:59:04;29.35;;;19.13;;
36191;SDS011;22233;42.708;23.360;2024-03-02T10:01:30;30.00;;;19.40;;
36191;SDS011;22233;42.708;23.360;2024-03-02T10:03:56;26.00;;;17.85;;
36191;SDS011;22233;42.708;23.360;2024-03-02T10:06:25;27.33;;;17.92;;
36191;SDS011;22233;42.708;23.360;2024-03-02T10:08:52;29.67;;;18.88;;
36191;SDS011;22233;42.708;23.360;2024-03-02T10:14:05;25.27;;;17.92;;
36191;SDS011;22233;42.708;23.360;2024-03-02T10:16:38;28.27;;;18.13;;
36191;SDS011;22233;42.708;23.360;2024-03-02T10:21:48;26.58;;;18.67;;
36191;SDS011;22233;42.708;23.360;2024-03-02T10:24:15;26.25;;;17.25;;
36191;SDS011;22233;42.708;23.360;2024-03-02T10:26:41;30.75;;;19.30;;
36191;SDS011;22233;42.708;23.360;2024-03-02T10:29:09;24.95;;;17.58;;
36191;SDS011;22233;42.708;23.360;2024-03-02T10:31:38;27.35;;;17.75;;
36191;SDS011;22233;42.708;23.360;2024-03-02T10:34:04;28.67;;;18.03;;
36191;SDS011;22233;42.708;23.360;2024-03-02T10:36:31;28.52;;;18.13;;
36191;SDS011;22233;42.708;23.360;2024-03-02T10:39:03;25.48;;;16.88;;
36191;SDS011;22233;42.708;23.360;2024-03-02T10:41:33;23.92;;;17.13;;
36191;SDS011;22233;42.708;23.360;2024-03-02T10:44:01;20.33;;;15.35;;
36191;SDS011;22233;42.708;23.360;2024-03-02T10:46:28;23.92;;;16.23;;
36191;SDS011;22233;42.708;23.360;2024-03-02T10:48:56;22.08;;;14.73;;
36191;SDS011;22233;42.708;23.360;2024-03-02T10:51:24;22.10;;;14.95;;
36191;SDS011;22233;42.708;23.360;2024-03-02T10:53:49;21.38;;;14.82;;
36191;SDS011;22233;42.708;23.360;2024-03-02T10:56:16;24.55;;;16.95;;
36191;SDS011;22233;42.708;23.360;2024-03-02T10:58:51;23.02;;;15.15;;
36191;SDS011;22233;42.708;23.360;2024-03-02T11:01:26;27.38;;;18.13;;
36191;SDS011;22233;42.708;23.360;2024-03-02T11:03:53;27.73;;;21.42;;
36191;SDS011;22233;42.708;23.360;2024-03-02T11:06:20;30.02;;;18.40;;
36191;SDS011;22233;42.708;23.360;2024-03-02T11:08:47;25.25;;;16.77;;
36191;SDS011;22233;42.708;23.360;2024-03-02T11:11:19;22.13;;;15.73;;
36191;SDS011;22233;42.708;23.360;2024-03-02T11:13:50;24.35;;;17.38;;
36191;SDS011;22233;42.708;23.360;2024-03-02T11:16:34;21.63;;;15.15;;
36191;SDS011;22233;42.708;23.360;2024-03-02T11:19:10;24.60;;;17.17;;
36191;SDS011;22233;42.708;23.360;2024-03-02T11:21:38;23.95;;;17.25;;
36191;SDS011;22233;42.708;23.360;2024-03-02T11:26:58;23.27;;;15.43;;
36191;SDS011;22233;42.708;23.360;2024-03-02T11:32:05;24.90;;;15.90;;
36191;SDS011;22233;42.708;23.360;2024-03-02T11:34:31;21.63;;;15.73;;
36191;SDS011;22233;42.708;23.360;2024-03-02T11:36:59;24.27;;;17.45;;
36191;SDS011;22233;42.708;23.360;2024-03-02T11:39:26;19.27;;;14.27;;
36191;SDS011;22233;42.708;23.360;2024-03-02T11:41:52;25.00;;;17.40;;
36191;SDS011;22233;42.708;23.360;2024-03-02T11:44:17;25.48;;;15.82;;
36191;SDS011;22233;42.708;23.360;2024-03-02T11:46:44;22.95;;;14.30;;
36191;SDS011;22233;42.708;23.360;2024-03-02T11:49:14;22.85;;;15.07;;
36191;SDS011;22233;42.708;23.360;2024-03-02T11:51:39;22.52;;;15.95;;
36191;SDS011;22233;42.708;23.360;2024-03-02T11:54:18;21.15;;;14.68;;
36191;SDS011;22233;42.708;23.360;2024-03-02T11:56:44;21.52;;;14.90;;
36191;SDS011;22233;42.708;23.360;2024-03-02T11:59:10;23.50;;;16.10;;
36191;SDS011;22233;42.708;23.360;2024-03-02T12:01:35;23.08;;;14.80;;
36191;SDS011;22233;42.708;23.360;2024-03-02T12:04:01;19.88;;;13.35;;
36191;SDS011;22233;42.708;23.360;2024-03-02T12:06:26;18.05;;;12.10;;
36191;SDS011;22233;42.708;23.360;2024-03-02T12:08:53;18.80;;;13.65;;
36191;SDS011;22233;42.708;23.360;2024-03-02T12:11:20;20.05;;;14.05;;
36191;SDS011;22233;42.708;23.360;2024-03-02T12:13:51;21.08;;;14.00;;
36191;SDS011;22233;42.708;23.360;2024-03-02T12:16:23;19.48;;;12.80;;
36191;SDS011;22233;42.708;23.360;2024-03-02T12:18:49;17.25;;;12.27;;
36191;SDS011;22233;42.708;23.360;2024-03-02T12:21:15;17.90;;;13.07;;
36191;SDS011;22233;42.708;23.360;2024-03-02T12:23:40;16.40;;;12.00;;
36191;SDS011;22233;42.708;23.360;2024-03-02T12:26:06;19.30;;;12.85;;
36191;SDS011;22233;42.708;23.360;2024-03-02T12:28:32;18.73;;;13.25;;
36191;SDS011;22233;42.708;23.360;2024-03-02T12:30:58;20.77;;;13.88;;
36191;SDS011;22233;42.708;23.360;2024-03-02T12:33:24;18.55;;;13.65;;
36191;SDS011;22233;42.708;23.360;2024-03-02T12:35:49;18.10;;;13.85;;
36191;SDS011;22233;42.708;23.360;2024-03-02T12:38:15;17.95;;;12.20;;
36191;SDS011;22233;42.708;23.360;2024-03-02T12:40:40;15.45;;;11.35;;
36191;SDS011;22233;42.708;23.360;2024-03-02T12:43:06;16.98;;;12.27;;
36191;SDS011;22233;42.708;23.360;2024-03-02T12:45:34;15.18;;;11.82;;
36191;SDS011;22233;42.708;23.360;2024-03-02T12:48:00;15.90;;;11.60;;
36191;SDS011;22233;42.708;23.360;2024-03-02T12:50:27;15.57;;;11.52;;
36191;SDS011;22233;42.708;23.360;2024-03-02T12:52:52;19.05;;;12.00;;
36191;SDS011;22233;42.708;23.360;2024-03-02T12:55:19;17.80;;;12.95;;
36191;SDS011;22233;42.708;23.360;2024-03-02T12:57:47;18.13;;;12.98;;
36191;SDS011;22233;42.708;23.360;2024-03-02T13:00:12;18.27;;;13.90;;
36191;SDS011;22233;42.708;23.360;2024-03-02T13:02:41;19.05;;;12.88;;
36191;SDS011;22233;42.708;23.360;2024-03-02T13:05:07;16.67;;;12.63;;
36191;SDS011;22233;42.708;23.360;2024-03-02T13:07:36;16.27;;;11.98;;
36191;SDS011;22233;42.708;23.360;2024-03-02T13:10:02;15.82;;;11.43;;
36191;SDS011;22233;42.708;23.360;2024-03-02T13:12:29;24.47;;;16.00;;
36191;SDS011;22233;42.708;23.360;2024-03-02T13:14:57;18.55;;;12.18;;
36191;SDS011;22233;42.708;23.360;2024-03-02T13:17:23;17.55;;;11.98;;
36191;SDS011;22233;42.708;23.360;2024-03-02T13:19:58;18.20;;;11.50;;
36191;SDS011;22233;42.708;23.360;2024-03-02T13:22:24;16.45;;;12.30;;
36191;SDS011;22233;42.708;23.360;2024-03-02T13:24:50;17.52;;;11.95;;
36191;SDS011;22233;42.708;23.360;2024-03-02T13:27:16;16.98;;;12.15;;
36191;SDS011;22233;42.708;23.360;2024-03-02T13:29:47;17.60;;;11.48;;
36191;SDS011;22233;42.708;23.360;2024-03-02T13:32:13;17.33;;;11.48;;
36191;SDS011;22233;42.708;23.360;2024-03-02T13:34:39;16.77;;;12.13;;
36191;SDS011;22233;42.708;23.360;2024-03-02T13:37:05;15.05;;;10.80;;
36191;SDS011;22233;42.708;23.360;2024-03-02T13:39:31;17.58;;;11.60;;
36191;SDS011;22233;42.708;23.360;2024-03-02T13:42:00;16.63;;;11.70;;
36191;SDS011;22233;42.708;23.360;2024-03-02T13:44:31;18.23;;;13.10;;
36191;SDS011;22233;42.708;23.360;2024-03-02T13:46:56;18.25;;;13.82;;
36191;SDS011;22233;42.708;23.360;2024-03-02T13:49:23;15.57;;;11.63;;
36191;SDS011;22233;42.708;23.360;2024-03-02T13:51:48;16.92;;;11.98;;
36191;SDS011;22233;42.708;23.360;2024-03-02T13:54:14;16.58;;;12.25;;
36191;SDS011;22233;42.708;23.360;2024-03-02T13:56:39;15.63;;;11.70;;
36191;SDS011;22233;42.708;23.360;2024-03-02T13:59:05;13.60;;;10.80;;
36191;SDS011;22233;42.708;23.360;2024-03-02T14:01:31;16.95;;;12.40;;
36191;SDS011;22233;42.708;23.360;2024-03-02T14:03:57;16.52;;;12.13;;
36191;SDS011;22233;42.708;23.360;2024-03-02T14:06:23;23.52;;;16.98;;
36191;SDS011;22233;42.708;23.360;2024-03-02T14:08:48;22.98;;;17.10;;
36191;SDS011;22233;42.708;23.360;2024-03-02T14:11:14;20.65;;;14.20;;
36191;SDS011;22233;42.708;23.360;2024-03-02T14:13:41;17.23;;;11.43;;
36191;SDS011;22233;42.708;23.360;2024-03-02T14:16:06;17.73;;;12.45;;
36191;SDS011;22233;42.708;23.360;2024-03-02T14:18:32;19.50;;;12.82;;
36191;SDS011;22233;42.708;23.360;2024-03-02T14:20:57;18.77;;;13.27;;